Time;durP1;ratioP1;P1;durP2;ratioP2;P2;SDS_P1;SDS_P2;PMS_P1;PMS_P2;Temp;Humidity;BMP_temperature;BMP_pressure;BME280_temperature;BME280_humidity;BME280_pressure;Samples;Min_cycle;Max_cycle;Signal;HPM_P1;HPM_P2
2020/12/22 00:00:19;;;;;;;0.93;0.60;;;12.10;99.90;;;;;;4993673;28;20168;-78
2020/12/22 00:02:47;;;;;;;0.60;0.50;;;12.10;99.90;;;;;;4993618;28;20176;-75
2020/12/22 00:05:13;;;;;;;0.60;0.50;;;12.10;99.90;;;;;;4993759;28;20543;-75
2020/12/22 00:07:40;;;;;;;1.27;1.13;;;12.10;99.90;;;;;;4993749;28;20699;-75
2020/12/22 00:10:07;;;;;;;0.65;0.60;;;12.00;99.90;;;;;;4993570;28;20529;-76
2020/12/22 00:12:33;;;;;;;1.35;1.00;;;12.20;99.90;;;;;;4993692;28;20210;-77
2020/12/22 00:15:00;;;;;;;0.68;0.60;;;12.20;99.90;;;;;;4993677;28;20179;-77
2020/12/22 00:17:26;;;;;;;2.88;0.50;;;12.30;99.90;;;;;;4996882;28;20310;-76
2020/12/22 00:19:52;;;;;;;0.60;0.50;;;12.30;99.90;;;;;;4997730;28;20266;-75
2020/12/22 00:22:17;;;;;;;0.60;0.50;;;12.30;99.90;;;;;;4997039;28;20286;-75
2020/12/22 00:24:43;;;;;;;0.60;0.50;;;12.20;99.90;;;;;;4997650;28;20171;-76
2020/12/22 00:27:09;;;;;;;0.60;0.60;;;12.20;99.90;;;;;;4997551;28;20186;-75
2020/12/22 00:29:35;;;;;;;0.60;0.50;;;12.30;99.90;;;;;;4997450;28;20210;-75
2020/12/22 00:32:01;;;;;;;1.20;0.60;;;12.40;99.90;;;;;;4997103;28;20195;-77
2020/12/22 00:34:30;;;;;;;0.88;0.60;;;12.60;99.90;;;;;;4997271;28;20620;-76
2020/12/22 00:36:56;;;;;;;0.60;0.55;;;12.50;99.90;;;;;;4997338;28;20192;-76
2020/12/22 00:39:22;;;;;;;2.67;0.70;;;12.60;99.90;;;;;;4997366;28;20214;-76
2020/12/22 00:41:55;;;;;;;0.60;0.50;;;12.50;99.90;;;;;;4997118;28;20565;-76
2020/12/22 00:44:21;;;;;;;0.60;0.50;;;12.50;99.90;;;;;;4997125;28;20514;-77
2020/12/22 00:46:47;;;;;;;1.97;0.40;;;12.40;99.90;;;;;;4997405;28;20594;-76
2020/12/22 00:49:13;;;;;;;0.60;0.50;;;12.40;99.90;;;;;;4997139;28;20446;-76
2020/12/22 00:51:38;;;;;;;1.33;0.60;;;12.50;99.90;;;;;;4997046;28;20198;-76
2020/12/22 00:54:04;;;;;;;0.60;0.40;;;12.50;99.90;;;;;;4996751;28;20408;-77
2020/12/22 00:56:30;;;;;;;0.77;0.50;;;12.60;99.90;;;;;;4997290;28;20197;-76
2020/12/22 00:58:55;;;;;;;0.50;0.40;;;12.60;99.90;;;;;;4996872;28;20227;-76
2020/12/22 01:01:21;;;;;;;0.60;0.50;;;12.80;99.90;;;;;;4996895;28;20599;-76
2020/12/22 01:03:47;;;;;;;0.60;0.50;;;12.90;99.90;;;;;;4996872;28;20190;-76
2020/12/22 01:06:15;;;;;;;0.60;0.50;;;13.00;99.90;;;;;;4995537;28;20987;-76
2020/12/22 01:08:40;;;;;;;1.30;0.50;;;13.00;99.90;;;;;;4996766;28;20206;-76
2020/12/22 01:11:06;;;;;;;0.70;0.40;;;13.10;99.90;;;;;;4996750;28;20458;-77
2020/12/22 01:13:31;;;;;;;0.87;0.60;;;13.00;99.90;;;;;;4996496;28;20180;-76
2020/12/22 01:15:57;;;;;;;0.50;0.40;;;13.10;99.90;;;;;;4996766;28;20648;-76
2020/12/22 01:18:23;;;;;;;1.77;0.50;;;13.30;99.90;;;;;;4996747;28;20253;-77
2020/12/22 01:20:49;;;;;;;0.50;0.40;;;13.70;99.90;;;;;;4996406;28;20197;-77
2020/12/22 01:23:15;;;;;;;0.60;0.50;;;13.80;99.90;;;;;;4996230;28;20668;-76
2020/12/22 01:25:41;;;;;;;1.07;0.60;;;14.00;99.90;;;;;;4996481;28;20824;-76
2020/12/22 01:28:07;;;;;;;0.83;0.50;;;14.10;99.90;;;;;;4996109;28;20199;-77
2020/12/22 01:30:32;;;;;;;1.07;0.70;;;14.00;99.90;;;;;;4996322;28;20433;-77
2020/12/22 01:32:58;;;;;;;1.00;0.80;;;14.00;99.90;;;;;;4995960;28;20187;-76
2020/12/22 01:35:24;;;;;;;0.90;0.70;;;14.10;99.90;;;;;;4996588;28;20179;-76
2020/12/22 01:37:49;;;;;;;0.70;0.50;;;14.00;99.90;;;;;;4996243;28;20223;-76
2020/12/22 01:40:15;;;;;;;1.47;0.63;;;14.10;99.90;;;;;;4996326;28;20628;-77
2020/12/22 01:42:44;;;;;;;1.30;0.60;;;14.20;99.90;;;;;;4995749;28;20175;-77
2020/12/22 01:45:11;;;;;;;0.70;0.70;;;14.30;99.90;;;;;;4996113;28;20259;-76
2020/12/22 01:47:44;;;;;;;3.53;0.80;;;14.30;99.90;;;;;;4996100;28;20421;-76
2020/12/22 01:50:11;;;;;;;1.73;0.60;;;14.20;99.90;;;;;;4994660;28;20966;-77
2020/12/22 01:52:39;;;;;;;1.03;0.67;;;14.20;99.90;;;;;;4995714;28;20418;-78
2020/12/22 01:55:04;;;;;;;0.97;0.60;;;14.20;99.90;;;;;;4995799;28;20919;-77
2020/12/22 01:57:30;;;;;;;0.60;0.50;;;14.10;99.90;;;;;;4995935;28;20429;-76
2020/12/22 01:59:56;;;;;;;1.63;0.70;;;14.20;99.90;;;;;;4995938;28;20180;-77
2020/12/22 02:02:23;;;;;;;2.30;0.60;;;14.20;99.90;;;;;;4995501;28;20247;-76
2020/12/22 02:04:48;;;;;;;0.70;0.60;;;14.10;99.90;;;;;;4995730;28;20179;-76
2020/12/22 02:07:14;;;;;;;0.60;0.50;;;14.20;99.90;;;;;;4995655;28;20549;-76
2020/12/22 02:09:40;;;;;;;0.93;0.50;;;14.20;99.90;;;;;;4995747;28;20183;-76
2020/12/22 02:12:05;;;;;;;0.83;0.60;;;14.20;99.90;;;;;;4995548;28;20703;-76
2020/12/22 02:14:31;;;;;;;1.80;0.80;;;14.20;99.90;;;;;;4995620;28;20186;-76
2020/12/22 02:16:57;;;;;;;2.03;0.70;;;14.10;99.90;;;;;;4995542;28;20263;-77
2020/12/22 02:19:23;;;;;;;0.90;0.60;;;14.20;99.90;;;;;;4995535;28;20556;-76
2020/12/22 02:21:49;;;;;;;0.97;0.60;;;14.20;99.90;;;;;;4995563;28;20187;-77
2020/12/22 02:24:14;;;;;;;0.60;0.50;;;14.20;99.90;;;;;;4995143;28;20888;-77
2020/12/22 02:26:40;;;;;;;1.33;0.80;;;14.30;99.90;;;;;;4995476;28;20222;-76
2020/12/22 02:29:06;;;;;;;0.60;0.50;;;14.20;99.90;;;;;;4995252;28;20197;-76
2020/12/22 02:31:31;;;;;;;0.70;0.60;;;14.20;99.90;;;;;;4995110;28;20722;-76
2020/12/22 02:33:57;;;;;;;1.60;0.60;;;14.20;99.90;;;;;;4994990;28;20184;-76
2020/12/22 02:36:23;;;;;;;0.70;0.50;;;14.30;99.90;;;;;;4995184;28;20202;-77
2020/12/22 02:38:48;;;;;;;0.60;0.50;;;14.20;99.90;;;;;;4994467;28;20203;-76
2020/12/22 02:41:14;;;;;;;3.37;0.50;;;14.30;99.90;;;;;;4995184;28;20230;-77
2020/12/22 02:43:40;;;;;;;0.60;0.50;;;14.20;99.90;;;;;;4994848;28;20477;-76
2020/12/22 02:46:06;;;;;;;0.83;0.60;;;14.30;99.90;;;;;;4995030;28;20180;-77
2020/12/22 02:48:32;;;;;;;0.90;0.50;;;14.30;99.90;;;;;;4995113;28;20414;-77
2020/12/22 02:50:58;;;;;;;0.70;0.50;;;14.20;99.90;;;;;;4994981;28;20497;-76
2020/12/22 02:53:24;;;;;;;1.47;0.60;;;14.20;99.90;;;;;;4994536;28;20180;-77
2020/12/22 02:55:49;;;;;;;0.93;0.50;;;14.10;99.90;;;;;;4994724;28;20440;-76
2020/12/22 02:58:15;;;;;;;3.10;0.60;;;14.00;99.90;;;;;;4994656;28;20248;-76
2020/12/22 03:00:42;;;;;;;0.67;0.57;;;14.00;99.90;;;;;;4994546;28;20202;-76
2020/12/22 03:03:08;;;;;;;0.70;0.60;;;14.00;99.90;;;;;;4994409;28;20210;-76
2020/12/22 03:05:34;;;;;;;1.90;0.80;;;14.00;99.90;;;;;;4994475;28;20411;-76
2020/12/22 03:07:59;;;;;;;0.83;0.50;;;13.90;99.90;;;;;;4994840;28;20411;-77
2020/12/22 03:10:25;;;;;;;1.47;0.60;;;14.00;99.90;;;;;;4994460;28;20172;-77
2020/12/22 03:12:51;;;;;;;1.17;0.60;;;14.00;99.90;;;;;;4994334;28;20180;-77
2020/12/22 03:15:16;;;;;;;2.20;1.00;;;14.00;99.90;;;;;;4994428;28;20183;-76
2020/12/22 03:17:42;;;;;;;0.63;0.50;;;14.10;99.90;;;;;;4994280;28;20209;-77
2020/12/22 03:20:10;;;;;;;0.80;0.57;;;14.00;99.90;;;;;;4994428;28;20167;-78
2020/12/22 03:22:36;;;;;;;1.30;0.60;;;13.90;99.90;;;;;;4994308;28;20544;-77
2020/12/22 03:25:04;;;;;;;0.60;0.50;;;14.10;99.90;;;;;;4994478;28;20461;-76
2020/12/22 03:27:30;;;;;;;2.20;0.60;;;13.90;99.90;;;;;;4994301;28;20184;-77
2020/12/22 03:29:55;;;;;;;0.63;0.50;;;14.00;99.90;;;;;;4994157;28;20409;-76
2020/12/22 03:32:21;;;;;;;1.40;0.63;;;14.00;99.90;;;;;;4993975;28;20195;-76
2020/12/22 03:34:47;;;;;;;1.03;0.50;;;13.90;99.90;;;;;;4994393;28;20171;-77
2020/12/22 03:37:19;;;;;;;0.77;0.60;;;13.90;99.90;;;;;;4994091;28;20759;-77
2020/12/22 03:39:49;;;;;;;0.82;0.60;;;14.10;99.90;;;;;;4994008;28;20182;-77
2020/12/22 03:42:15;;;;;;;0.60;0.50;;;14.10;99.90;;;;;;4993671;28;20228;-76
2020/12/22 03:44:41;;;;;;;0.90;0.50;;;14.20;99.90;;;;;;4994262;28;20820;-76
2020/12/22 03:47:07;;;;;;;0.70;0.50;;;14.20;99.90;;;;;;4993905;28;20406;-77
2020/12/22 03:49:32;;;;;;;0.57;0.50;;;14.30;99.90;;;;;;4993961;28;20175;-78
2020/12/22 03:51:58;;;;;;;0.60;0.50;;;14.30;99.90;;;;;;4993444;28;20293;-77
2020/12/22 03:54:24;;;;;;;1.30;0.50;;;14.30;99.90;;;;;;4993823;28;20199;-76
2020/12/22 03:56:49;;;;;;;0.83;0.60;;;14.30;99.90;;;;;;4993979;28;20179;-76
2020/12/22 03:59:15;;;;;;;0.97;0.50;;;14.30;99.90;;;;;;4993755;28;20198;-77
2020/12/22 04:01:40;;;;;;;0.87;0.57;;;14.40;99.90;;;;;;4993769;28;20202;-77
2020/12/22 04:04:06;;;;;;;0.70;0.70;;;14.50;99.90;;;;;;4993428;28;20188;-77
2020/12/22 04:06:31;;;;;;;0.60;0.50;;;14.40;99.90;;;;;;4994037;28;20576;-77
2020/12/22 04:08:57;;;;;;;0.60;0.50;;;14.40;99.90;;;;;;4993787;28;20187;-76
2020/12/22 04:11:22;;;;;;;1.67;1.00;;;14.40;99.90;;;;;;4993781;28;20203;-76
2020/12/22 04:13:48;;;;;;;1.10;0.53;;;14.30;99.90;;;;;;4993489;28;20179;-76
2020/12/22 04:16:14;;;;;;;0.90;0.50;;;14.40;99.90;;;;;;4993578;28;20706;-76
2020/12/22 04:18:40;;;;;;;0.70;0.50;;;14.50;99.90;;;;;;4993573;28;20202;-76
2020/12/22 04:21:06;;;;;;;1.40;0.50;;;14.40;99.90;;;;;;4993632;28;20423;-76
2020/12/22 04:23:32;;;;;;;2.05;0.50;;;14.40;99.90;;;;;;4993392;28;20206;-76
2020/12/22 04:25:57;;;;;;;0.90;0.50;;;14.30;99.90;;;;;;4993799;28;20207;-75
2020/12/22 04:28:23;;;;;;;1.43;0.50;;;14.20;99.90;;;;;;4993489;28;20246;-75
2020/12/22 04:30:48;;;;;;;0.60;0.43;;;14.30;99.90;;;;;;4993529;28;20219;-75
2020/12/22 04:33:14;;;;;;;2.20;0.50;;;14.20;99.90;;;;;;4993267;28;20182;-75
2020/12/22 04:35:40;;;;;;;0.83;0.50;;;14.10;99.90;;;;;;4993572;28;20180;-75
2020/12/22 04:38:07;;;;;;;0.70;0.60;;;14.10;99.90;;;;;;4993387;28;20313;-75
2020/12/22 04:40:33;;;;;;;0.70;0.50;;;14.10;99.90;;;;;;4993425;28;20435;-75
2020/12/22 04:43:00;;;;;;;0.60;0.50;;;14.20;99.90;;;;;;4993140;28;20586;-76
2020/12/22 04:45:29;;;;;;;0.90;0.60;;;14.10;99.90;;;;;;4993469;28;20206;-76
2020/12/22 04:47:56;;;;;;;0.60;0.57;;;14.10;99.90;;;;;;4993400;28;20179;-75
2020/12/22 04:50:22;;;;;;;2.83;0.60;;;14.20;99.90;;;;;;4993237;28;20417;-76
2020/12/22 04:52:49;;;;;;;0.50;0.40;;;14.30;99.90;;;;;;4993204;28;20179;-76
2020/12/22 04:55:17;;;;;;;0.60;0.50;;;14.20;99.90;;;;;;4993532;28;20410;-76
2020/12/22 04:57:51;;;;;;;0.80;0.40;;;14.30;99.90;;;;;;4993497;28;20211;-76
2020/12/22 05:00:20;;;;;;;0.60;0.50;;;14.20;99.90;;;;;;4993293;28;20446;-77
2020/12/22 05:02:48;;;;;;;0.70;0.50;;;14.10;99.90;;;;;;4994923;28;20439;-76
2020/12/22 05:05:15;;;;;;;1.03;0.60;;;14.00;99.90;;;;;;4996848;28;20753;-76
2020/12/22 05:07:41;;;;;;;0.50;0.40;;;14.10;99.90;;;;;;4996938;28;20430;-76
2020/12/22 05:10:12;;;;;;;1.67;0.50;;;14.00;99.90;;;;;;4996835;28;20406;-76
2020/12/22 05:12:40;;;;;;;0.60;0.50;;;14.10;99.90;;;;;;4996476;28;20395;-76
2020/12/22 05:15:07;;;;;;;1.53;0.50;;;14.10;99.90;;;;;;4996644;28;20426;-76
2020/12/22 05:17:43;;;;;;;1.48;0.50;;;14.00;99.90;;;;;;4996422;28;20414;-76
2020/12/22 05:20:13;;;;;;;0.60;0.50;;;14.20;99.90;;;;;;4996369;28;20188;-76
2020/12/22 05:22:39;;;;;;;0.50;0.40;;;14.20;99.90;;;;;;4996080;28;20513;-76
2020/12/22 05:25:05;;;;;;;0.63;0.57;;;14.20;99.90;;;;;;4996611;28;20435;-76
2020/12/22 05:27:32;;;;;;;0.50;0.40;;;14.20;99.90;;;;;;4996519;28;20502;-76
2020/12/22 05:30:04;;;;;;;1.17;0.50;;;14.10;99.90;;;;;;4996416;28;20412;-75
2020/12/22 05:32:31;;;;;;;0.88;0.50;;;14.10;99.90;;;;;;4996085;28;20489;-75
2020/12/22 05:34:56;;;;;;;0.80;0.50;;;14.00;99.90;;;;;;4996517;28;20589;-76
2020/12/22 05:37:26;;;;;;;0.50;0.40;;;14.10;99.90;;;;;;4996319;28;20422;-76
2020/12/22 05:39:52;;;;;;;0.70;0.60;;;14.10;99.90;;;;;;4996289;28;20226;-76
2020/12/22 05:42:19;;;;;;;0.60;0.50;;;14.00;99.90;;;;;;4995819;28;20457;-76
2020/12/22 05:44:54;;;;;;;0.60;0.40;;;14.10;99.90;;;;;;4996011;28;20637;-76
2020/12/22 05:47:21;;;;;;;1.53;0.60;;;14.10;99.90;;;;;;4996032;28;20410;-76
2020/12/22 05:49:54;;;;;;;0.60;0.50;;;14.10;99.90;;;;;;4996044;28;20533;-76
2020/12/22 05:52:22;;;;;;;0.50;0.40;;;14.00;99.90;;;;;;4995491;28;20477;-76
2020/12/22 05:54:53;;;;;;;0.60;0.50;;;14.10;99.90;;;;;;4995826;28;20425;-76
2020/12/22 05:57:29;;;;;;;0.80;0.50;;;14.00;99.90;;;;;;4995938;28;20196;-75
2020/12/22 05:59:56;;;;;;;0.50;0.40;;;14.10;99.90;;;;;;4995842;28;20433;-75
2020/12/22 06:02:32;;;;;;;2.40;0.50;;;14.10;99.90;;;;;;4995703;28;20426;-75
2020/12/22 06:05:00;;;;;;;1.13;0.50;;;14.10;99.90;;;;;;4995685;28;20417;-76
2020/12/22 06:07:26;;;;;;;0.50;0.40;;;14.00;99.90;;;;;;4995640;28;20176;-76
2020/12/22 06:09:53;;;;;;;0.70;0.50;;;14.00;99.90;;;;;;4995643;28;20176;-75
2020/12/22 06:12:20;;;;;;;0.57;0.40;;;14.10;99.90;;;;;;4995469;28;20667;-76
2020/12/22 06:14:54;;;;;;;1.00;0.50;;;14.10;99.90;;;;;;4994513;28;20751;-76
2020/12/22 06:17:21;;;;;;;1.53;0.50;;;14.10;99.90;;;;;;4995576;28;20423;-76
2020/12/22 06:19:48;;;;;;;0.60;0.50;;;14.20;99.90;;;;;;4995311;28;20477;-76
2020/12/22 06:22:18;;;;;;;0.90;0.60;;;14.30;99.90;;;;;;4994956;28;20493;-76
2020/12/22 06:24:51;;;;;;;0.90;0.60;;;14.30;99.90;;;;;;4995279;28;20514;-76
2020/12/22 06:27:16;;;;;;;1.47;0.70;;;14.30;99.90;;;;;;4995421;28;20425;-76
2020/12/22 06:29:44;;;;;;;0.80;0.60;;;14.30;99.90;;;;;;4995298;28;20794;-76
2020/12/22 06:32:29;;;;;;;0.50;0.40;;;14.40;99.90;;;;;;4995022;28;20196;-76
2020/12/22 06:35:27;;;;;;;1.53;0.50;;;14.30;99.90;;;;;;4995380;28;20473;-76
2020/12/22 06:37:53;;;;;;;0.50;0.40;;;14.40;99.90;;;;;;4995112;28;20462;-76
2020/12/22 06:40:19;;;;;;;0.60;0.50;;;14.40;99.90;;;;;;4994997;28;20473;-76
2020/12/22 06:42:46;;;;;;;0.60;0.50;;;14.40;99.90;;;;;;4994710;28;20426;-77
2020/12/22 06:45:25;;;;;;;1.47;0.53;;;14.40;99.90;;;;;;4994823;28;20183;-78
2020/12/22 06:47:52;;;;;;;0.60;0.50;;;14.40;99.90;;;;;;4994954;28;20501;-76
2020/12/22 06:50:41;;;;;;;0.60;0.50;;;14.40;99.90;;;;;;4994766;28;20422;-76
2020/12/22 06:53:27;;;;;;;1.97;0.60;;;14.40;99.90;;;;;;4994237;28;20752;-76
2020/12/22 06:55:54;;;;;;;2.30;0.60;;;14.50;99.90;;;;;;4994674;28;20422;-76
2020/12/22 06:58:44;;;;;;;0.60;0.50;;;14.50;99.90;;;;;;4994823;28;20457;-76
2020/12/22 07:01:28;;;;;;;3.83;0.60;;;14.50;99.90;;;;;;4994727;28;20514;-77
2020/12/22 07:04:13;;;;;;;0.90;0.53;;;14.40;99.90;;;;;;4994334;28;20410;-76
2020/12/22 07:06:48;;;;;;;0.60;0.40;;;14.40;99.90;;;;;;4994823;28;20828;-76
2020/12/22 07:09:19;;;;;;;0.87;0.50;;;14.50;99.90;;;;;;4994517;28;20782;-77
2020/12/22 07:11:46;;;;;;;2.27;0.90;;;14.40;99.90;;;;;;4994373;28;20422;-77
2020/12/22 07:14:19;;;;;;;1.33;0.73;;;14.40;99.90;;;;;;4994200;28;20414;-76
2020/12/22 07:16:56;;;;;;;1.80;1.00;;;14.40;99.90;;;;;;4993485;28;20910;-76
2020/12/22 07:19:28;;;;;;;2.60;0.70;;;14.40;99.90;;;;;;4994653;28;20791;-76
2020/12/22 07:21:58;;;;;;;0.83;0.53;;;14.50;99.90;;;;;;4993969;28;20857;-76
2020/12/22 07:24:25;;;;;;;2.40;0.70;;;14.60;99.90;;;;;;4994523;28;20417;-75
2020/12/22 07:26:51;;;;;;;0.70;0.50;;;14.40;99.90;;;;;;4994331;28;20418;-76
2020/12/22 07:29:16;;;;;;;1.13;0.60;;;14.50;99.90;;;;;;4994045;28;20434;-75
2020/12/22 07:31:42;;;;;;;2.03;0.80;;;14.50;99.90;;;;;;4994015;28;20430;-76
2020/12/22 07:34:09;;;;;;;3.77;1.00;;;14.50;99.90;;;;;;4996558;28;20183;-76
2020/12/22 07:36:35;;;;;;;3.87;0.80;;;14.40;99.90;;;;;;5003884;28;20514;-75
2020/12/22 07:39:13;;;;;;;3.40;0.60;;;14.50;99.90;;;;;;5013526;28;20547;-75
2020/12/22 07:41:39;;;;;;;1.10;0.70;;;14.60;99.90;;;;;;5013405;28;20201;-74
2020/12/22 07:44:09;;;;;;;3.57;1.17;;;14.50;99.90;;;;;;5013297;28;20414;-75
2020/12/22 07:46:35;;;;;;;1.00;0.70;;;14.50;99.90;;;;;;5013606;28;20206;-75
2020/12/22 07:49:05;;;;;;;1.30;0.73;;;14.50;99.90;;;;;;5013555;28;20450;-75
2020/12/22 07:51:31;;;;;;;0.70;0.60;;;14.50;99.90;;;;;;5013425;28;20480;-76
2020/12/22 07:54:03;;;;;;;2.00;1.10;;;14.60;99.90;;;;;;5012893;28;20425;-76
2020/12/22 07:56:35;;;;;;;1.20;0.70;;;14.60;99.90;;;;;;5013758;28;20421;-75
2020/12/22 07:59:08;;;;;;;1.63;0.87;;;14.60;99.90;;;;;;5013615;28;20525;-75
2020/12/22 08:01:41;;;;;;;1.23;0.70;;;14.60;99.90;;;;;;5013572;28;20429;-76
2020/12/22 08:04:20;;;;;;;1.20;0.77;;;14.60;99.90;;;;;;5013036;28;20404;-76
2020/12/22 08:06:59;;;;;;;1.53;0.60;;;14.60;99.90;;;;;;5013774;28;20745;-76
2020/12/22 08:09:30;;;;;;;4.07;0.67;;;14.60;99.90;;;;;;5013518;28;20417;-76
2020/12/22 08:12:01;;;;;;;1.63;0.60;;;14.50;99.90;;;;;;5012817;28;20438;-76
2020/12/22 08:14:28;;;;;;;3.80;0.67;;;14.40;99.90;;;;;;5013451;28;20414;-76
2020/12/22 08:16:57;;;;;;;1.77;0.70;;;14.50;99.90;;;;;;5013270;28;20422;-76
2020/12/22 08:19:23;;;;;;;2.13;0.77;;;14.50;99.90;;;;;;5013285;28;20457;-76
2020/12/22 08:21:53;;;;;;;1.53;0.67;;;14.40;99.90;;;;;;5013123;28;20448;-77
2020/12/22 08:24:19;;;;;;;5.07;0.90;;;14.40;99.90;;;;;;5013275;28;20206;-76
2020/12/22 08:26:49;;;;;;;1.53;0.70;;;14.50;99.90;;;;;;5013310;28;20444;-76
2020/12/22 08:29:17;;;;;;;1.73;0.80;;;14.50;99.90;;;;;;5013016;28;20805;-76
2020/12/22 08:31:44;;;;;;;0.90;0.60;;;14.60;99.90;;;;;;5013238;28;20492;-76
2020/12/22 08:34:13;;;;;;;3.73;0.90;;;14.70;99.90;;;;;;5012794;28;20417;-76
2020/12/22 08:36:40;;;;;;;1.33;0.70;;;14.60;99.90;;;;;;5013365;28;20425;-76
2020/12/22 08:39:15;;;;;;;1.17;0.90;;;14.60;99.90;;;;;;5016917;28;20468;-76
2020/12/22 08:41:43;;;;;;;0.63;0.60;;;14.70;99.90;;;;;;5016894;28;20495;-76
2020/12/22 08:44:11;;;;;;;1.83;1.10;;;14.70;99.90;;;;;;5016441;28;20410;-76
2020/12/22 08:46:38;;;;;;;4.23;1.20;;;14.80;99.90;;;;;;5016768;28;20921;-76
2020/12/22 08:49:11;;;;;;;1.30;0.90;;;14.80;99.90;;;;;;5016804;28;20415;-77
2020/12/22 08:51:38;;;;;;;3.83;0.77;;;14.80;99.90;;;;;;5016718;28;20479;-76
2020/12/22 08:54:04;;;;;;;1.47;0.73;;;14.90;99.90;;;;;;5016166;28;20552;-76
2020/12/22 08:56:30;;;;;;;2.57;0.80;;;14.70;99.90;;;;;;5016520;28;20952;-77
2020/12/22 08:59:01;;;;;;;2.70;0.60;;;14.80;99.90;;;;;;5016454;28;20552;-76
2020/12/22 09:01:30;;;;;;;2.07;1.30;;;14.60;99.90;;;;;;5016728;28;20430;-76
2020/12/22 09:03:59;;;;;;;1.37;0.60;;;14.40;99.90;;;;;;5016317;28;20883;-76
2020/12/22 09:06:42;;;;;;;0.80;0.57;;;14.40;99.90;;;;;;5016484;28;20753;-76
2020/12/22 09:09:15;;;;;;;3.07;0.87;;;14.50;99.90;;;;;;5016315;28;20437;-76
2020/12/22 09:11:41;;;;;;;1.67;0.70;;;14.50;99.90;;;;;;5016447;28;20437;-76
2020/12/22 09:14:40;;;;;;;0.93;0.70;;;14.60;99.90;;;;;;5015976;28;20421;-76
2020/12/22 09:17:06;;;;;;;2.50;0.93;;;14.50;99.90;;;;;;5016243;28;20421;-77
2020/12/22 09:19:47;;;;;;;0.83;0.57;;;14.60;99.90;;;;;;5016182;28;20462;-76
2020/12/22 09:22:13;;;;;;;1.30;0.80;;;14.60;99.90;;;;;;5016182;28;20429;-77
2020/12/22 09:24:39;;;;;;;2.83;0.73;;;14.60;99.90;;;;;;5016305;28;20414;-76
2020/12/22 09:27:11;;;;;;;0.70;0.67;;;14.60;99.90;;;;;;5016325;28;20455;-77
2020/12/22 09:29:38;;;;;;;1.50;0.77;;;14.60;99.90;;;;;;5016039;28;20528;-76
2020/12/22 09:32:05;;;;;;;1.00;0.63;;;14.60;99.90;;;;;;5015578;28;20441;-76
2020/12/22 09:34:33;;;;;;;1.43;0.70;;;14.50;99.90;;;;;;5015979;28;20417;-77
2020/12/22 09:37:01;;;;;;;1.57;0.67;;;14.50;99.90;;;;;;5015991;28;20448;-76
2020/12/22 09:39:28;;;;;;;0.90;0.57;;;14.70;99.90;;;;;;5015914;28;20969;-77
2020/12/22 09:41:55;;;;;;;4.20;0.80;;;14.70;99.90;;;;;;5015410;28;20461;-77
2020/12/22 09:44:21;;;;;;;2.03;0.80;;;14.80;99.90;;;;;;5015675;28;20413;-77
2020/12/22 09:46:48;;;;;;;1.30;0.70;;;14.70;99.90;;;;;;5015635;28;20956;-76
2020/12/22 09:49:14;;;;;;;3.53;0.60;;;14.70;99.90;;;;;;5015546;28;20188;-76
2020/12/22 09:51:40;;;;;;;2.60;0.70;;;14.80;99.90;;;;;;5015531;28;20926;-76
2020/12/22 09:54:06;;;;;;;2.50;1.37;;;14.90;99.90;;;;;;5015152;28;20429;-76
2020/12/22 09:56:31;;;;;;;2.53;0.63;;;14.90;99.90;;;;;;5015497;28;20236;-76
2020/12/22 09:58:58;;;;;;;1.93;0.70;;;14.90;99.90;;;;;;5015302;28;20211;-76
2020/12/22 10:01:26;;;;;;;3.10;0.80;;;14.80;99.90;;;;;;5015365;28;20726;-76
2020/12/22 10:03:52;;;;;;;1.27;0.70;;;14.90;99.90;;;;;;5015203;28;20496;-76
2020/12/22 10:06:26;;;;;;;2.47;0.97;;;14.90;99.90;;;;;;5015231;28;20436;-76
2020/12/22 10:08:53;;;;;;;2.83;0.90;;;14.80;99.90;;;;;;5015174;28;20393;-76
2020/12/22 10:11:20;;;;;;;2.23;0.90;;;14.90;99.90;;;;;;5015102;28;20879;-76
2020/12/22 10:13:46;;;;;;;3.93;0.80;;;14.90;99.90;;;;;;5014951;28;20418;-75
2020/12/22 10:16:14;;;;;;;1.37;0.90;;;14.90;99.90;;;;;;5015341;28;20418;-76
2020/12/22 10:18:40;;;;;;;2.07;0.80;;;15.00;99.90;;;;;;5015073;28;20508;-76
2020/12/22 10:21:11;;;;;;;2.10;0.90;;;15.10;99.90;;;;;;5014893;28;20434;-76
2020/12/22 10:23:38;;;;;;;4.70;0.90;;;15.10;99.90;;;;;;5013464;28;20922;-76
2020/12/22 10:26:05;;;;;;;1.30;0.70;;;15.20;99.90;;;;;;5013999;28;20804;-77
2020/12/22 10:28:34;;;;;;;1.37;0.80;;;15.20;99.90;;;;;;5015006;28;20784;-76
2020/12/22 10:31:00;;;;;;;1.50;1.00;;;15.10;99.90;;;;;;5014669;28;20516;-76
2020/12/22 10:33:26;;;;;;;2.80;0.90;;;15.00;99.90;;;;;;5014570;28;20445;-76
2020/12/22 10:35:52;;;;;;;3.43;0.90;;;14.80;99.90;;;;;;5014946;28;20453;-76
2020/12/22 10:38:18;;;;;;;1.50;1.10;;;14.90;99.90;;;;;;5014701;28;20496;-76
2020/12/22 10:40:44;;;;;;;1.37;1.13;;;14.70;99.90;;;;;;5014704;28;20486;-76
2020/12/22 10:43:10;;;;;;;3.77;0.90;;;14.50;99.90;;;;;;5014277;28;20179;-76
2020/12/22 10:45:36;;;;;;;2.20;0.90;;;14.60;99.90;;;;;;5014580;28;20175;-76
2020/12/22 10:48:02;;;;;;;1.10;0.90;;;14.60;99.90;;;;;;5014579;28;20187;-76
2020/12/22 10:50:28;;;;;;;1.20;0.90;;;14.60;99.90;;;;;;5014535;28;20503;-76
2020/12/22 10:52:54;;;;;;;2.00;1.27;;;14.50;99.90;;;;;;5014058;28;20826;-77
2020/12/22 10:55:20;;;;;;;1.47;0.97;;;14.60;99.90;;;;;;5014236;28;20205;-76
2020/12/22 10:57:46;;;;;;;2.30;1.33;;;14.80;99.90;;;;;;5014440;28;20504;-76
2020/12/22 11:00:12;;;;;;;2.20;1.10;;;14.80;99.90;;;;;;5013763;28;20464;-76
2020/12/22 11:02:38;;;;;;;3.67;1.30;;;14.70;99.90;;;;;;5013960;28;20414;-76
2020/12/22 11:05:04;;;;;;;1.20;1.07;;;14.70;99.90;;;;;;5014135;28;20185;-76
2020/12/22 11:10:03;;;;;;;1.83;1.20;;;14.60;99.90;;;;;;5014662;28;20429;-77
2020/12/22 11:12:29;;;;;;;1.20;1.10;;;14.50;99.90;;;;;;5013853;28;20445;-77
2020/12/22 11:14:54;;;;;;;1.80;0.93;;;14.60;99.90;;;;;;5014358;28;20802;-77
2020/12/22 11:17:20;;;;;;;1.50;1.00;;;14.50;99.90;;;;;;5014051;28;20305;-77
2020/12/22 11:19:45;;;;;;;5.87;1.03;;;14.50;99.90;;;;;;5013976;28;20260;-77
2020/12/22 11:22:11;;;;;;;2.07;1.30;;;14.40;99.90;;;;;;5013576;28;20207;-77
2020/12/22 11:24:37;;;;;;;1.30;1.20;;;14.50;99.90;;;;;;5013996;28;20171;-76
2020/12/22 11:27:02;;;;;;;1.40;1.30;;;14.30;99.90;;;;;;5014132;28;20178;-76
2020/12/22 11:29:28;;;;;;;2.50;1.23;;;14.30;99.90;;;;;;5014023;28;20199;-76
2020/12/22 11:31:53;;;;;;;1.20;1.03;;;14.00;99.90;;;;;;5013779;28;20245;-76
2020/12/22 11:34:20;;;;;;;1.70;1.13;;;14.00;99.90;;;;;;5013936;28;20186;-76
2020/12/22 11:36:50;;;;;;;1.73;1.53;;;14.00;99.90;;;;;;5013957;28;20174;-76
2020/12/22 11:39:16;;;;;;;1.50;1.30;;;14.00;99.90;;;;;;5013657;28;20469;-77
2020/12/22 11:41:41;;;;;;;4.07;2.23;;;14.00;99.90;;;;;;5013893;28;20434;-76
2020/12/22 11:44:07;;;;;;;2.90;2.07;;;14.00;99.90;;;;;;5013374;28;20499;-77
2020/12/22 11:46:33;;;;;;;2.10;1.97;;;13.90;99.90;;;;;;5013759;28;20406;-76
2020/12/22 11:48:58;;;;;;;3.93;2.10;;;14.10;99.90;;;;;;5013531;28;20183;-76
2020/12/22 11:51:24;;;;;;;1.70;1.60;;;14.00;99.90;;;;;;5013517;28;20228;-77
2020/12/22 11:53:50;;;;;;;4.10;1.20;;;13.90;99.90;;;;;;5013451;28;20177;-77
2020/12/22 11:56:15;;;;;;;1.20;1.10;;;13.80;99.90;;;;;;5013619;28;20270;-76
2020/12/22 11:58:41;;;;;;;1.30;1.20;;;13.60;99.90;;;;;;5013401;28;20198;-76
2020/12/22 12:01:07;;;;;;;2.60;1.20;;;13.60;99.90;;;;;;5013405;28;20557;-76
2020/12/22 12:03:32;;;;;;;1.10;0.90;;;13.60;99.90;;;;;;5013021;28;20178;-77
2020/12/22 12:05:58;;;;;;;1.63;1.00;;;13.50;99.90;;;;;;5013170;28;20414;-76
2020/12/22 12:08:24;;;;;;;1.27;1.10;;;13.60;99.90;;;;;;5013326;28;20275;-76
2020/12/22 12:10:49;;;;;;;1.43;0.90;;;13.60;99.90;;;;;;5013304;28;20198;-76
2020/12/22 12:13:15;;;;;;;2.07;1.20;;;13.70;99.90;;;;;;5015973;28;20183;-75
2020/12/22 12:15:40;;;;;;;3.83;1.30;;;13.70;99.90;;;;;;5017469;28;20254;-76
2020/12/22 12:18:06;;;;;;;2.70;1.10;;;13.70;99.90;;;;;;5017286;28;20202;-76
2020/12/22 12:20:32;;;;;;;1.20;0.90;;;13.80;99.90;;;;;;5017328;28;20198;-75
2020/12/22 12:22:57;;;;;;;2.07;0.97;;;13.60;99.90;;;;;;5017029;28;20193;-76
2020/12/22 12:25:23;;;;;;;1.03;0.93;;;13.70;99.90;;;;;;5017195;28;20293;-76
2020/12/22 12:27:48;;;;;;;1.87;1.20;;;13.60;99.90;;;;;;5017028;28;20557;-75
2020/12/22 12:30:15;;;;;;;3.90;1.00;;;13.60;99.90;;;;;;5017195;28;20185;-76
2020/12/22 12:32:41;;;;;;;1.05;0.90;;;13.70;99.90;;;;;;5016929;28;20171;-75
2020/12/22 12:35:06;;;;;;;1.70;1.07;;;13.60;99.90;;;;;;5017104;28;20186;-76
2020/12/22 12:37:32;;;;;;;1.50;1.03;;;13.70;99.90;;;;;;5017295;28;20186;-76
2020/12/22 12:39:58;;;;;;;2.13;1.53;;;13.70;99.90;;;;;;5016818;28;20217;-77
2020/12/22 12:42:27;;;;;;;2.30;1.03;;;13.80;99.90;;;;;;5016703;28;20557;-76
2020/12/22 12:44:53;;;;;;;2.50;1.20;;;13.80;99.90;;;;;;5017045;28;20233;-76
2020/12/22 12:47:19;;;;;;;2.80;1.40;;;13.70;99.90;;;;;;5016895;28;20401;-75
2020/12/22 12:49:45;;;;;;;1.85;1.15;;;13.80;99.90;;;;;;5016815;28;20273;-76
2020/12/22 12:52:12;;;;;;;3.53;1.10;;;13.70;99.90;;;;;;5016315;28;20242;-76